Bookmark and Share
Track history (hours):
 

Sun Globe

Last reported at 2014-Apr-07 00:06 UTC. Time now 2014-Apr-23 15:26 UTC.
Position N 22°09' E 120°13'.
Warning: this ship's position is 16 days out of date.

Length 190 m; draft 9.1 m.

Type: Cargo ship. MMSI: 256415000.

NotesDate/timePositionNaut miles runAvg speedWind from/ knotsBaromVisibWave heightAir tempDewpointWater temp
2014-Apr-07 00:06N 22°09' E 120°13'610.9
2014-Apr-06 23:33N 22°15' E 120°13'1111.3
2014-Apr-06 22:33N 22°26' E 120°13'1111.1
2014-Apr-06 21:33N 22°37' E 120°12'6 5.7
2014-Apr-06 20:33N 22°36' E 120°18'0 0.2
2014-Apr-06 19:30N 22°36' E 120°18'0 0.0
2014-Apr-06 18:30N 22°36' E 120°18'0 0.0
2014-Apr-06 17:30N 22°36' E 120°18'0 0.0
2014-Apr-06 16:18N 22°36' E 120°18'0 0.0
2014-Apr-06 14:24N 22°36' E 120°18'0 0.0
2014-Apr-06 13:30N 22°36' E 120°18'0 0.0
2014-Apr-06 12:30N 22°36' E 120°18'0 0.0
2014-Apr-06 11:30N 22°36' E 120°18'0 0.0
2014-Apr-06 10:18N 22°36' E 120°18'0 0.0
2014-Apr-06 09:12N 22°36' E 120°18'0 0.0
2014-Apr-06 08:30N 22°36' E 120°18'0 0.0
2014-Apr-06 07:24N 22°36' E 120°18'0 0.0
2014-Apr-06 06:30N 22°36' E 120°18'0 0.0
2014-Apr-06 05:24N 22°36' E 120°18'0 0.0
2014-Apr-06 04:30N 22°36' E 120°18'0 0.0
2014-Apr-06 03:30N 22°36' E 120°18'0 0.0
2014-Apr-06 02:30N 22°36' E 120°18'0 0.0
2014-Apr-06 01:30N 22°36' E 120°18'0 0.0
2014-Apr-06 00:30N 22°36' E 120°18'0 0.0
2014-Apr-05 23:30N 22°36' E 120°18'0 0.5
2014-Apr-05 22:33N 22°36' E 120°17'3 0.2
2014-Apr-05 06:09N 22°34' E 120°20'0 0.0
2014-Apr-05 05:33N 22°34' E 120°20'0 0.0
2014-Apr-05 04:33N 22°34' E 120°20'0 0.0
2014-Apr-05 03:33N 22°34' E 120°20'0 0.0
2014-Apr-05 02:33N 22°34' E 120°20'0 0.0
2014-Apr-05 01:33N 22°34' E 120°20'0 0.0
2014-Apr-05 00:33N 22°34' E 120°20'0 0.0
2014-Apr-04 23:33N 22°34' E 120°20'0 0.0
2014-Apr-04 21:27N 22°34' E 120°20'0 0.0
2014-Apr-04 20:33N 22°34' E 120°20'0 0.0
2014-Apr-04 19:27N 22°34' E 120°20'0 0.0
2014-Apr-04 18:27N 22°34' E 120°20'0 0.0
2014-Apr-04 17:33N 22°34' E 120°20'0 0.0
2014-Apr-04 16:27N 22°34' E 120°20'0 0.0
2014-Apr-04 15:15N 22°34' E 120°20'0 0.0
2014-Apr-04 14:27N 22°34' E 120°20'0 0.0
2014-Apr-04 13:33N 22°34' E 120°20'0 0.0
2014-Apr-04 12:21N 22°34' E 120°20'0 0.0
2014-Apr-04 11:33N 22°34' E 120°20'0 0.0
2014-Apr-04 07:21N 22°34' E 120°20'0 0.0
2014-Apr-04 06:27N 22°34' E 120°20'0 0.0
2014-Apr-04 04:33N 22°34' E 120°20'0 0.0
2014-Apr-04 03:27N 22°34' E 120°20'0 0.0
2014-Apr-04 02:15N 22°34' E 120°20'0 0.0
2014-Apr-03 23:21N 22°34' E 120°20'0 0.4
2014-Apr-03 22:33N 22°33' E 120°20'1 1.0
2014-Apr-03 21:28N 22°34' E 120°18'0 0.0
2014-Apr-03 20:28N 22°34' E 120°18'0 0.0
2014-Apr-03 19:28N 22°34' E 120°18'0 0.0
2014-Apr-03 18:28N 22°34' E 120°18'0 0.0
2014-Apr-03 17:28N 22°34' E 120°18'0 0.0
2014-Apr-03 16:28N 22°34' E 120°18'0 0.0
2014-Apr-03 15:22N 22°34' E 120°18'0 0.0
2014-Apr-03 14:28N 22°34' E 120°18'0 0.0
2014-Apr-03 13:22N 22°34' E 120°18'0 0.0
2014-Apr-03 12:28N 22°34' E 120°18'0 0.0
2014-Apr-03 11:22N 22°34' E 120°18'0 0.0
2014-Apr-03 10:28N 22°34' E 120°18'0 0.0
2014-Apr-03 09:28N 22°34' E 120°18'0 0.0
2014-Apr-03 08:28N 22°34' E 120°18'0 0.0
2014-Apr-03 07:28N 22°34' E 120°18'0 0.0
2014-Apr-03 06:28N 22°34' E 120°18'0 0.0
2014-Apr-03 05:28N 22°34' E 120°18'0 0.0
2014-Apr-03 04:28N 22°34' E 120°18'0 0.0
2014-Apr-03 03:28N 22°34' E 120°18'0 0.0
2014-Apr-03 02:28N 22°34' E 120°18'0 0.0
2014-Apr-03 01:28N 22°34' E 120°18'0 0.0
2014-Apr-03 00:28N 22°34' E 120°18'0 0.0
2014-Apr-02 23:22N 22°34' E 120°18'0 0.0
2014-Apr-02 22:28N 22°34' E 120°18'0 0.0
2014-Apr-02 21:28N 22°34' E 120°18'0 0.0
2014-Apr-02 20:28N 22°34' E 120°18'0 0.0
2014-Apr-02 19:28N 22°34' E 120°18'0 0.0
2014-Apr-02 18:28N 22°34' E 120°18'0 0.0
2014-Apr-02 17:28N 22°34' E 120°18'0 0.0
2014-Apr-02 16:22N 22°34' E 120°18'0 0.0
2014-Apr-02 15:28N 22°34' E 120°18'0 0.0
2014-Apr-02 14:28N 22°34' E 120°18'0 0.0
2014-Apr-02 13:28N 22°34' E 120°18'0 0.0
2014-Apr-02 12:28N 22°34' E 120°18'0 0.0
2014-Apr-02 11:22N 22°34' E 120°18'0 0.0
2014-Apr-02 10:28N 22°34' E 120°18'0 0.0
2014-Apr-02 09:28N 22°34' E 120°18'0 0.0
2014-Apr-02 08:22N 22°34' E 120°18'0 0.0
2014-Apr-02 07:28N 22°34' E 120°18'0 0.0
2014-Apr-02 06:22N 22°34' E 120°18'0 0.0
2014-Apr-02 05:28N 22°34' E 120°18'0 0.0
2014-Apr-02 04:16N 22°34' E 120°18'0 0.0
2014-Apr-02 03:28N 22°34' E 120°18'0 0.0
2014-Apr-02 02:28N 22°34' E 120°18'0 0.0
2014-Apr-02 01:28N 22°34' E 120°18'0 0.0
2014-Apr-02 00:28N 22°34' E 120°18'0 0.0
2014-Apr-01 23:28N 22°34' E 120°18'1 1.2
2014-Apr-01 22:34N 22°33' E 120°19'7 6.7
2014-Apr-01 21:33N 22°29' E 120°13'2 1.8
2014-Apr-01 20:30N 22°27' E 120°13'2 1.5
2014-Apr-01 19:30N 22°29' E 120°12'1 1.1
2014-Apr-01 18:30N 22°30' E 120°12'1 0.8
2014-Apr-01 17:30N 22°31' E 120°12'1 0.5
2014-Apr-01 16:30N 22°31' E 120°12'1 1.4
2014-Apr-01 15:33N 22°32' E 120°12'1010.1
2014-Apr-01 14:33N 22°41' E 120°06'1110.6
2014-Apr-01 13:33N 22°50' E 120°01'41010.2
2014-Mar-30 21:11N 29°07' E 123°01'711.3
2014-Mar-30 20:32N 29°13' E 123°06'1111.0
2014-Mar-30 19:30N 29°23' E 123°12'3410.2
2014-Mar-30 16:13N 29°51' E 123°33'  
2014-Mar-28 06:27N 37°51' E 122°47'1910.0
2014-Mar-28 04:33N 37°59' E 122°25'2610.6
2014-Mar-28 02:06N 38°10' E 121°55'610.2
2014-Mar-28 01:33N 38°13' E 121°49'1010.2
2014-Mar-28 00:33N 38°17' E 121°37'  

Dump ship's entire track history

sailing weather and tide predictions

Sun Globe — 9HA2857 — position and weather